EGAAEGGW

Guest
Details From EGAA - Belfast Aldergrove
To EGGW - London Luton
Flight Number -
Tags generated
Created
Modified
Stats Distance 269 nm / 498 km
Max Altitude 33,100 ft / 10,089 m
Waypoints 10
Social Downloads 3
Likes 0
Share

Download

Looking for another format? Having issues loading an existing format? Contact us
Advertisement - Login to hide

Notes

Basic altitude profile: - Ascent Rate: 2500ft/min - Ascent Speed: 275kts - Cruise Altitude: 24000ft - Cruise Speed: 420kts - Descent Rate: 1500ft/min - Descent Speed: 250kts Options: - Use NATs: yes - Use PACOTS: yes - Use low airways: yes - Use high airways: yes

Route

EGAA RINGA L10 IOM UL10 WAL B53 WAL41 EGGW

ID Type Via Altitude (ft/m) Position (lat/lon) Dist (leg/tot) Name
O EGAA APT - 0 / 0 54.65388 / -6.22001 - / 0 nm Belfast Aldergrove
RINGA FIX - 9,700 / 2,957 54.39833 / -5.57111 27 / 27 nm
SLYDA FIX L10 (AWY-LO) 17,100 / 5,212 54.20111 / -5.08750 20 / 48 nm
IOM VOR L10 (AWY-LO) 21,100 / 6,431 54.06687 / -4.76347 13 / 61 nm ISLE OF MAN VOR-DME
KELLY FIX UL10 (AWY-HI) 27,200 / 8,291 53.90528 / -4.36417 17 / 79 nm
PENIL FIX UL10 (AWY-HI) 33,100 / 10,089 53.61611 / -3.66361 30 / 109 nm
WAL VOR UL10 (AWY-HI) 29,100 / 8,870 53.39194 / -3.13444 23 / 132 nm WALLASEY VOR-DME
NANTI FIX B53 (AWY-LO) 23,600 / 7,193 53.13667 / -2.56667 25 / 158 nm
WAL41 FIX B53 (AWY-LO) 19,200 / 5,852 52.97583 / -2.21306 16 / 174 nm
O EGGW APT - 0 / 0 51.87463 / -0.36845 94 / 268 nm London Luton

Altitude Profile

Advertisement - Login to hide

Weather


0- 5 10 15 20 25 30 35+ Temperature / °C

Clouds and Precipitation
Forecast for 2021-07-24 00:00 UTC. Updated 6 hours ago

Ground ~20,000 ft ~40,000 ft Winds

EGAA

Details ICAO EGAA (BFS)
Name Belfast International
Region United Kingdom
Timezone Europe/London (UTC+1.0)
Stats Elevation 268 ft / 82 m (AMSL)
Location 54.653900° -6.219940°
Runways 2
Magnetic Variation 2.629° W

METAR

EGAA 240320Z AUTO 09003KT 4700 BR NCD 14/13 Q1013

Decode

TAF

TAF EGAA 232302Z 2400/2424 07004KT CAVOK PROB30 2400/2408 8000= TAF EGPD 232256Z 2400/2424 14006KT 9999 BKN010 TEMPO 2400/2410 8000 BKN007 PROB30 TEMPO 2400/2408 2000 BR BKN003 BECMG 2410/2413 SCT015 PROB30 TEMPO 2416/2424 BKN012

Decode

Departure Runways

ID Width Length Bearing (true/mag) Surface Threshold Overrun Markings Lighting
07 147 ft / 45 m 9,124 ft / 2,781 m 65.01° / 67.64° ASPHALT 0 ft / 0 m 0 ft / 0 m APP CENTERLINE EDGE THRESHOLD CALVERT
17 148 ft / 45 m 5,909 ft / 1,801 m 161.99° / 164.62° ASPHALT 525 ft / 160 m 0 ft / 0 m PREC-APP EDGE THRESHOLD CALVERT
25 147 ft / 45 m 9,124 ft / 2,781 m 245.05° / 247.68° ASPHALT 0 ft / 0 m 0 ft / 0 m PREC-APP CENTERLINE EDGE THRESHOLD CALVERT TDZ
35 148 ft / 45 m 5,909 ft / 1,801 m 342.00° / 344.63° ASPHALT 502 ft / 153 m 0 ft / 0 m APP EDGE THRESHOLD MALS

EGGW

Details ICAO EGGW (LTN)
Name London Luton
Region United Kingdom
Timezone Europe/London (UTC+1.0)
Stats Elevation 524 ft / 160 m (AMSL)
Location 51.874600° -0.368432°
Runways 1
Magnetic Variation 0.039° W

METAR

EGGW 240320Z AUTO 04007KT 9999 FEW011 13/12 Q1010

Decode

TAF

TAF EGGW 232256Z 2400/2424 07011KT 9999 SCT030 PROB40 2400/2406 8000 BKN008 PROB30 TEMPO 2400/2411 06016G26KT TEMPO 2406/2408 6000 SHRA BKN008 TEMPO 2408/2413 6000 SHRA PROB30 TEMPO 2408/2412 09020G30KT 3000 +TSRAGS BKN008 BKN045CB PROB30 TEMPO 2412/2422 3000 +TSRAGS BKN012 BKN030CB TEMPO 2422/2424 7000 SHRA BKN012 PROB30 TEMPO 2422/2424 3000 +SHRA BKN008

Decode

Destination Runways

ID Width Length Bearing (true/mag) Surface Threshold Overrun Markings Lighting
07 150 ft / 46 m 7,067 ft / 2,154 m 74.35° / 74.39° ASPHALT 0 ft / 0 m 197 ft / 60 m UK-PREC-APP CENTERLINE EDGE THRESHOLD ALSF-I REIL-OMNI
25 150 ft / 46 m 7,067 ft / 2,154 m 254.37° / 254.41° ASPHALT 279 ft / 85 m 0 ft / 0 m UK-PREC-APP CENTERLINE EDGE THRESHOLD CALVERT REIL-OMNI

Approach Navaids

Runway Type Ident Frequency Range Bearing (true/mag) Slope Elevation
07 LOC-ILS ILTN 109.15 MHz 18 nm / 33 km 74.36° / 74.40 ° - 526 ft / 160 m (AMSL)
07 GS ILTN 109.15 MHz 10 nm / 19 km 74.36° / 74.40 ° 3.00° 526 ft / 160 m (AMSL)
25 LOC-ILS ILJ 109.15 MHz 18 nm / 33 km 254.36° / 254.40 ° - 526 ft / 160 m (AMSL)
25 GS ILJ 109.15 MHz 10 nm / 19 km 254.36° / 254.40 ° 3.00° 526 ft / 160 m (AMSL)

Popular Alternatives